sensor_id;sensor_type;location;lat;lon;timestamp;P1;durP1;ratioP1;P2;durP2;ratioP2
21943;SDS011;11136;48.778;9.126;2023-04-24T00:01:47;1.08;;;0.60;;
21943;SDS011;11136;48.778;9.126;2023-04-24T00:04:13;2.97;;;0.90;;
21943;SDS011;11136;48.778;9.126;2023-04-24T00:06:41;0.63;;;0.50;;
21943;SDS011;11136;48.778;9.126;2023-04-24T00:09:08;0.50;;;0.40;;
21943;SDS011;11136;48.778;9.126;2023-04-24T00:11:34;1.33;;;1.05;;
21943;SDS011;11136;48.778;9.126;2023-04-24T00:14:00;0.80;;;0.55;;
21943;SDS011;11136;48.778;9.126;2023-04-24T00:16:26;3.03;;;0.80;;
21943;SDS011;11136;48.778;9.126;2023-04-24T00:18:52;3.85;;;0.40;;
21943;SDS011;11136;48.778;9.126;2023-04-24T00:21:18;1.02;;;0.60;;
21943;SDS011;11136;48.778;9.126;2023-04-24T00:23:46;2.20;;;0.93;;
21943;SDS011;11136;48.778;9.126;2023-04-24T00:26:13;0.98;;;0.70;;
21943;SDS011;11136;48.778;9.126;2023-04-24T00:28:38;1.70;;;0.60;;
21943;SDS011;11136;48.778;9.126;2023-04-24T00:31:05;1.10;;;0.52;;
21943;SDS011;11136;48.778;9.126;2023-04-24T00:33:31;1.48;;;0.60;;
21943;SDS011;11136;48.778;9.126;2023-04-24T00:35:56;1.38;;;0.47;;
21943;SDS011;11136;48.778;9.126;2023-04-24T00:38:22;1.30;;;0.65;;
21943;SDS011;11136;48.778;9.126;2023-04-24T00:40:49;0.47;;;0.47;;
21943;SDS011;11136;48.778;9.126;2023-04-24T00:43:19;1.58;;;0.85;;
21943;SDS011;11136;48.778;9.126;2023-04-24T00:45:46;0.95;;;0.68;;
21943;SDS011;11136;48.778;9.126;2023-04-24T00:48:11;1.00;;;0.60;;
21943;SDS011;11136;48.778;9.126;2023-04-24T00:50:37;0.77;;;0.50;;
21943;SDS011;11136;48.778;9.126;2023-04-24T00:53:03;1.00;;;0.70;;
21943;SDS011;11136;48.778;9.126;2023-04-24T00:55:29;0.73;;;0.40;;
21943;SDS011;11136;48.778;9.126;2023-04-24T00:57:55;1.27;;;0.85;;
21943;SDS011;11136;48.778;9.126;2023-04-24T01:00:21;0.65;;;0.60;;
21943;SDS011;11136;48.778;9.126;2023-04-24T01:02:47;2.58;;;0.57;;
21943;SDS011;11136;48.778;9.126;2023-04-24T01:05:13;2.05;;;0.50;;
21943;SDS011;11136;48.778;9.126;2023-04-24T01:07:43;0.28;;;0.20;;
21943;SDS011;11136;48.778;9.126;2023-04-24T01:10:11;1.53;;;0.60;;
21943;SDS011;11136;48.778;9.126;2023-04-24T01:12:38;0.88;;;0.60;;
21943;SDS011;11136;48.778;9.126;2023-04-24T01:15:04;2.70;;;0.85;;
21943;SDS011;11136;48.778;9.126;2023-04-24T01:17:31;1.35;;;0.98;;
21943;SDS011;11136;48.778;9.126;2023-04-24T01:19:59;2.80;;;0.65;;
21943;SDS011;11136;48.778;9.126;2023-04-24T01:22:26;0.93;;;0.73;;
21943;SDS011;11136;48.778;9.126;2023-04-24T01:24:52;1.33;;;0.60;;
21943;SDS011;11136;48.778;9.126;2023-04-24T01:27:18;1.02;;;0.68;;
21943;SDS011;11136;48.778;9.126;2023-04-24T01:29:45;1.15;;;0.60;;
21943;SDS011;11136;48.778;9.126;2023-04-24T01:32:13;4.22;;;0.70;;
21943;SDS011;11136;48.778;9.126;2023-04-24T01:34:40;0.75;;;0.50;;
21943;SDS011;11136;48.778;9.126;2023-04-24T01:37:05;2.15;;;0.90;;
21943;SDS011;11136;48.778;9.126;2023-04-24T01:39:34;0.73;;;0.52;;
21943;SDS011;11136;48.778;9.126;2023-04-24T01:42:00;1.15;;;0.75;;
21943;SDS011;11136;48.778;9.126;2023-04-24T01:44:28;0.75;;;0.50;;
21943;SDS011;11136;48.778;9.126;2023-04-24T01:46:54;0.50;;;0.40;;
21943;SDS011;11136;48.778;9.126;2023-04-24T01:49:21;0.38;;;0.38;;
21943;SDS011;11136;48.778;9.126;2023-04-24T01:51:49;1.10;;;0.57;;
21943;SDS011;11136;48.778;9.126;2023-04-24T01:54:15;1.17;;;0.43;;
21943;SDS011;11136;48.778;9.126;2023-04-24T01:56:41;1.85;;;0.30;;
21943;SDS011;11136;48.778;9.126;2023-04-24T01:59:08;2.15;;;0.75;;
21943;SDS011;11136;48.778;9.126;2023-04-24T02:01:36;2.83;;;0.80;;
21943;SDS011;11136;48.778;9.126;2023-04-24T02:04:02;2.28;;;0.73;;
21943;SDS011;11136;48.778;9.126;2023-04-24T02:06:28;4.05;;;0.57;;
21943;SDS011;11136;48.778;9.126;2023-04-24T02:08:54;1.45;;;0.55;;
21943;SDS011;11136;48.778;9.126;2023-04-24T02:11:19;1.75;;;0.57;;
21943;SDS011;11136;48.778;9.126;2023-04-24T02:13:45;4.50;;;0.75;;
21943;SDS011;11136;48.778;9.126;2023-04-24T02:16:10;1.38;;;1.00;;
21943;SDS011;11136;48.778;9.126;2023-04-24T02:18:37;0.55;;;0.50;;
21943;SDS011;11136;48.778;9.126;2023-04-24T02:21:04;0.98;;;0.82;;
21943;SDS011;11136;48.778;9.126;2023-04-24T02:23:32;2.13;;;0.52;;
21943;SDS011;11136;48.778;9.126;2023-04-24T02:25:57;2.22;;;0.80;;
21943;SDS011;11136;48.778;9.126;2023-04-24T02:28:23;2.22;;;0.70;;
21943;SDS011;11136;48.778;9.126;2023-04-24T02:30:49;1.25;;;0.85;;
21943;SDS011;11136;48.778;9.126;2023-04-24T02:33:15;2.45;;;0.50;;
21943;SDS011;11136;48.778;9.126;2023-04-24T02:35:41;0.75;;;0.50;;
21943;SDS011;11136;48.778;9.126;2023-04-24T02:38:06;1.55;;;0.65;;
21943;SDS011;11136;48.778;9.126;2023-04-24T02:40:32;2.35;;;0.70;;
21943;SDS011;11136;48.778;9.126;2023-04-24T02:42:57;0.68;;;0.43;;
21943;SDS011;11136;48.778;9.126;2023-04-24T02:45:23;0.55;;;0.43;;
21943;SDS011;11136;48.778;9.126;2023-04-24T02:47:49;2.55;;;1.02;;
21943;SDS011;11136;48.778;9.126;2023-04-24T02:50:14;2.67;;;0.70;;
21943;SDS011;11136;48.778;9.126;2023-04-24T02:52:40;1.30;;;0.57;;
21943;SDS011;11136;48.778;9.126;2023-04-24T02:55:06;1.75;;;0.38;;
21943;SDS011;11136;48.778;9.126;2023-04-24T02:57:33;1.02;;;0.52;;
21943;SDS011;11136;48.778;9.126;2023-04-24T02:59:58;1.42;;;0.80;;
21943;SDS011;11136;48.778;9.126;2023-04-24T03:02:24;2.67;;;0.70;;
21943;SDS011;11136;48.778;9.126;2023-04-24T03:04:50;0.93;;;0.80;;
21943;SDS011;11136;48.778;9.126;2023-04-24T03:07:15;0.70;;;0.63;;
21943;SDS011;11136;48.778;9.126;2023-04-24T03:09:41;0.63;;;0.55;;
21943;SDS011;11136;48.778;9.126;2023-04-24T03:12:07;3.17;;;0.90;;
21943;SDS011;11136;48.778;9.126;2023-04-24T03:14:33;0.65;;;0.65;;
21943;SDS011;11136;48.778;9.126;2023-04-24T03:16:59;1.88;;;0.70;;
21943;SDS011;11136;48.778;9.126;2023-04-24T03:19:25;2.45;;;0.93;;
21943;SDS011;11136;48.778;9.126;2023-04-24T03:21:53;1.65;;;0.68;;
21943;SDS011;11136;48.778;9.126;2023-04-24T03:24:20;3.03;;;0.55;;
21943;SDS011;11136;48.778;9.126;2023-04-24T03:26:46;1.08;;;0.65;;
21943;SDS011;11136;48.778;9.126;2023-04-24T03:29:11;0.80;;;0.60;;
21943;SDS011;11136;48.778;9.126;2023-04-24T03:31:38;1.50;;;1.00;;
21943;SDS011;11136;48.778;9.126;2023-04-24T03:34:03;2.50;;;0.60;;
21943;SDS011;11136;48.778;9.126;2023-04-24T03:36:29;1.35;;;0.60;;
21943;SDS011;11136;48.778;9.126;2023-04-24T03:38:55;3.97;;;1.48;;
21943;SDS011;11136;48.778;9.126;2023-04-24T03:41:21;2.28;;;0.70;;
21943;SDS011;11136;48.778;9.126;2023-04-24T03:43:47;1.75;;;0.77;;
21943;SDS011;11136;48.778;9.126;2023-04-24T03:46:13;0.52;;;0.50;;
21943;SDS011;11136;48.778;9.126;2023-04-24T03:48:39;2.97;;;0.70;;
21943;SDS011;11136;48.778;9.126;2023-04-24T03:51:05;1.48;;;0.70;;
21943;SDS011;11136;48.778;9.126;2023-04-24T03:53:31;1.73;;;0.80;;
21943;SDS011;11136;48.778;9.126;2023-04-24T03:55:56;2.83;;;0.65;;
21943;SDS011;11136;48.778;9.126;2023-04-24T03:58:23;0.68;;;0.60;;
21943;SDS011;11136;48.778;9.126;2023-04-24T04:00:49;0.40;;;0.40;;
21943;SDS011;11136;48.778;9.126;2023-04-24T04:03:14;2.97;;;0.63;;
21943;SDS011;11136;48.778;9.126;2023-04-24T04:05:41;1.58;;;0.90;;
21943;SDS011;11136;48.778;9.126;2023-04-24T04:08:07;3.03;;;0.93;;
21943;SDS011;11136;48.778;9.126;2023-04-24T04:10:32;1.35;;;0.57;;
21943;SDS011;11136;48.778;9.126;2023-04-24T04:12:58;0.68;;;0.52;;
21943;SDS011;11136;48.778;9.126;2023-04-24T04:15:23;6.55;;;1.45;;
21943;SDS011;11136;48.778;9.126;2023-04-24T04:17:49;2.47;;;0.60;;
21943;SDS011;11136;48.778;9.126;2023-04-24T04:20:15;1.00;;;0.60;;
21943;SDS011;11136;48.778;9.126;2023-04-24T04:22:40;1.67;;;0.60;;
21943;SDS011;11136;48.778;9.126;2023-04-24T04:25:06;4.88;;;0.82;;
21943;SDS011;11136;48.778;9.126;2023-04-24T04:27:33;2.85;;;0.98;;
21943;SDS011;11136;48.778;9.126;2023-04-24T04:29:59;2.67;;;0.77;;
21943;SDS011;11136;48.778;9.126;2023-04-24T04:32:31;0.98;;;0.80;;
21943;SDS011;11136;48.778;9.126;2023-04-24T04:34:59;0.95;;;0.60;;
21943;SDS011;11136;48.778;9.126;2023-04-24T04:37:28;2.92;;;0.80;;
21943;SDS011;11136;48.778;9.126;2023-04-24T04:39:56;1.38;;;0.60;;
21943;SDS011;11136;48.778;9.126;2023-04-24T04:42:26;0.63;;;0.63;;
21943;SDS011;11136;48.778;9.126;2023-04-24T04:44:55;1.13;;;0.60;;
21943;SDS011;11136;48.778;9.126;2023-04-24T04:47:23;1.25;;;0.75;;
21943;SDS011;11136;48.778;9.126;2023-04-24T04:49:50;1.25;;;0.70;;
21943;SDS011;11136;48.778;9.126;2023-04-24T04:52:19;1.75;;;0.63;;
21943;SDS011;11136;48.778;9.126;2023-04-24T04:54:44;1.17;;;0.60;;
21943;SDS011;11136;48.778;9.126;2023-04-24T04:57:11;0.60;;;0.60;;
21943;SDS011;11136;48.778;9.126;2023-04-24T04:59:37;0.68;;;0.68;;
21943;SDS011;11136;48.778;9.126;2023-04-24T05:02:02;1.35;;;0.85;;
21943;SDS011;11136;48.778;9.126;2023-04-24T05:04:28;0.90;;;0.68;;
21943;SDS011;11136;48.778;9.126;2023-04-24T05:06:54;1.70;;;1.00;;
21943;SDS011;11136;48.778;9.126;2023-04-24T05:09:19;0.77;;;0.77;;
21943;SDS011;11136;48.778;9.126;2023-04-24T05:11:45;2.47;;;0.80;;
21943;SDS011;11136;48.778;9.126;2023-04-24T05:14:11;4.20;;;0.90;;
21943;SDS011;11136;48.778;9.126;2023-04-24T05:16:37;5.90;;;0.90;;
21943;SDS011;11136;48.778;9.126;2023-04-24T05:19:03;2.15;;;0.80;;
21943;SDS011;11136;48.778;9.126;2023-04-24T05:21:30;1.73;;;1.00;;
21943;SDS011;11136;48.778;9.126;2023-04-24T05:23:58;1.35;;;0.70;;
21943;SDS011;11136;48.778;9.126;2023-04-24T05:26:23;1.00;;;0.73;;
21943;SDS011;11136;48.778;9.126;2023-04-24T05:28:50;0.60;;;0.60;;
21943;SDS011;11136;48.778;9.126;2023-04-24T05:31:16;2.25;;;0.60;;
21943;SDS011;11136;48.778;9.126;2023-04-24T05:33:42;1.83;;;0.88;;
21943;SDS011;11136;48.778;9.126;2023-04-24T05:36:08;2.35;;;0.90;;
21943;SDS011;11136;48.778;9.126;2023-04-24T05:38:35;1.75;;;0.73;;
21943;SDS011;11136;48.778;9.126;2023-04-24T05:41:00;2.25;;;1.52;;
21943;SDS011;11136;48.778;9.126;2023-04-24T05:43:26;2.20;;;1.20;;
21943;SDS011;11136;48.778;9.126;2023-04-24T05:45:52;2.08;;;1.00;;
21943;SDS011;11136;48.778;9.126;2023-04-24T05:48:18;0.82;;;0.82;;
21943;SDS011;11136;48.778;9.126;2023-04-24T05:50:44;1.27;;;0.95;;
21943;SDS011;11136;48.778;9.126;2023-04-24T05:53:12;3.83;;;1.05;;
21943;SDS011;11136;48.778;9.126;2023-04-24T05:55:37;1.33;;;1.20;;
21943;SDS011;11136;48.778;9.126;2023-04-24T05:58:05;1.83;;;1.20;;
21943;SDS011;11136;48.778;9.126;2023-04-24T06:00:31;0.98;;;0.90;;
21943;SDS011;11136;48.778;9.126;2023-04-24T06:02:59;2.53;;;1.20;;
21943;SDS011;11136;48.778;9.126;2023-04-24T06:05:26;1.23;;;0.80;;
21943;SDS011;11136;48.778;9.126;2023-04-24T06:07:52;1.33;;;1.13;;
21943;SDS011;11136;48.778;9.126;2023-04-24T06:10:18;0.80;;;0.80;;
21943;SDS011;11136;48.778;9.126;2023-04-24T06:12:43;0.70;;;0.68;;
21943;SDS011;11136;48.778;9.126;2023-04-24T06:15:09;2.80;;;0.98;;
21943;SDS011;11136;48.778;9.126;2023-04-24T06:17:35;5.53;;;1.38;;
21943;SDS011;11136;48.778;9.126;2023-04-24T06:20:01;2.20;;;1.00;;
21943;SDS011;11136;48.778;9.126;2023-04-24T06:22:30;1.88;;;1.40;;
21943;SDS011;11136;48.778;9.126;2023-04-24T06:24:56;1.83;;;0.95;;
21943;SDS011;11136;48.778;9.126;2023-04-24T06:27:21;2.83;;;1.10;;
21943;SDS011;11136;48.778;9.126;2023-04-24T06:29:47;1.60;;;1.00;;
21943;SDS011;11136;48.778;9.126;2023-04-24T06:32:19;1.85;;;1.60;;
21943;SDS011;11136;48.778;9.126;2023-04-24T06:34:46;2.40;;;1.20;;
21943;SDS011;11136;48.778;9.126;2023-04-24T06:37:13;1.00;;;0.90;;
21943;SDS011;11136;48.778;9.126;2023-04-24T06:39:40;3.85;;;1.00;;
21943;SDS011;11136;48.778;9.126;2023-04-24T06:42:06;1.63;;;1.30;;
21943;SDS011;11136;48.778;9.126;2023-04-24T06:44:33;3.55;;;1.20;;
21943;SDS011;11136;48.778;9.126;2023-04-24T06:47:03;1.42;;;0.93;;
21943;SDS011;11136;48.778;9.126;2023-04-24T06:49:29;2.47;;;1.35;;
21943;SDS011;11136;48.778;9.126;2023-04-24T06:51:55;2.53;;;1.58;;
21943;SDS011;11136;48.778;9.126;2023-04-24T06:54:20;2.45;;;1.48;;
21943;SDS011;11136;48.778;9.126;2023-04-24T06:56:46;2.13;;;1.70;;
21943;SDS011;11136;48.778;9.126;2023-04-24T06:59:12;3.03;;;1.42;;
21943;SDS011;11136;48.778;9.126;2023-04-24T07:01:38;3.83;;;1.23;;
21943;SDS011;11136;48.778;9.126;2023-04-24T07:04:04;2.05;;;1.00;;
21943;SDS011;11136;48.778;9.126;2023-04-24T07:06:29;1.60;;;1.30;;
21943;SDS011;11136;48.778;9.126;2023-04-24T07:08:56;2.72;;;1.65;;
21943;SDS011;11136;48.778;9.126;2023-04-24T07:11:22;2.40;;;1.73;;
21943;SDS011;11136;48.778;9.126;2023-04-24T07:13:48;1.52;;;1.42;;
21943;SDS011;11136;48.778;9.126;2023-04-24T07:16:14;1.77;;;1.02;;
21943;SDS011;11136;48.778;9.126;2023-04-24T07:18:39;2.40;;;1.20;;
21943;SDS011;11136;48.778;9.126;2023-04-24T07:21:06;2.58;;;1.60;;
21943;SDS011;11136;48.778;9.126;2023-04-24T07:23:32;4.78;;;1.50;;
21943;SDS011;11136;48.778;9.126;2023-04-24T07:25:57;3.35;;;1.30;;
21943;SDS011;11136;48.778;9.126;2023-04-24T07:28:23;1.35;;;1.13;;
21943;SDS011;11136;48.778;9.126;2023-04-24T07:30:49;1.15;;;1.02;;
21943;SDS011;11136;48.778;9.126;2023-04-24T07:33:15;2.08;;;1.10;;
21943;SDS011;11136;48.778;9.126;2023-04-24T07:35:40;2.67;;;1.13;;
21943;SDS011;11136;48.778;9.126;2023-04-24T07:38:06;1.58;;;1.23;;
21943;SDS011;11136;48.778;9.126;2023-04-24T07:40:31;2.92;;;1.30;;
21943;SDS011;11136;48.778;9.126;2023-04-24T07:42:57;2.13;;;1.10;;
21943;SDS011;11136;48.778;9.126;2023-04-24T07:45:23;2.45;;;1.10;;
21943;SDS011;11136;48.778;9.126;2023-04-24T07:47:50;2.17;;;1.30;;
21943;SDS011;11136;48.778;9.126;2023-04-24T07:50:16;5.18;;;1.02;;
21943;SDS011;11136;48.778;9.126;2023-04-24T07:52:42;1.50;;;0.93;;
21943;SDS011;11136;48.778;9.126;2023-04-24T07:55:07;2.10;;;0.98;;
21943;SDS011;11136;48.778;9.126;2023-04-24T07:57:33;1.77;;;1.08;;
21943;SDS011;11136;48.778;9.126;2023-04-24T07:59:59;4.47;;;1.10;;
21943;SDS011;11136;48.778;9.126;2023-04-24T08:02:24;4.97;;;1.00;;
21943;SDS011;11136;48.778;9.126;2023-04-24T08:04:52;0.93;;;0.80;;
21943;SDS011;11136;48.778;9.126;2023-04-24T08:07:20;1.10;;;1.00;;
21943;SDS011;11136;48.778;9.126;2023-04-24T08:09:46;2.30;;;0.95;;
21943;SDS011;11136;48.778;9.126;2023-04-24T08:12:12;2.35;;;1.33;;
21943;SDS011;11136;48.778;9.126;2023-04-24T08:14:38;2.55;;;1.10;;
21943;SDS011;11136;48.778;9.126;2023-04-24T08:17:04;2.97;;;1.10;;
21943;SDS011;11136;48.778;9.126;2023-04-24T08:19:30;1.00;;;0.90;;
21943;SDS011;11136;48.778;9.126;2023-04-24T08:21:56;2.10;;;1.20;;
21943;SDS011;11136;48.778;9.126;2023-04-24T08:24:22;1.90;;;1.20;;
21943;SDS011;11136;48.778;9.126;2023-04-24T08:26:48;1.83;;;0.90;;
21943;SDS011;11136;48.778;9.126;2023-04-24T08:29:18;1.95;;;1.20;;
21943;SDS011;11136;48.778;9.126;2023-04-24T08:31:44;1.02;;;0.73;;
21943;SDS011;11136;48.778;9.126;2023-04-24T08:34:10;1.67;;;1.20;;
21943;SDS011;11136;48.778;9.126;2023-04-24T08:36:36;2.70;;;1.15;;
21943;SDS011;11136;48.778;9.126;2023-04-24T08:39:02;0.98;;;0.80;;
21943;SDS011;11136;48.778;9.126;2023-04-24T08:41:27;3.13;;;1.40;;
21943;SDS011;11136;48.778;9.126;2023-04-24T08:43:53;2.90;;;1.02;;
21943;SDS011;11136;48.778;9.126;2023-04-24T08:46:20;4.93;;;1.48;;
21943;SDS011;11136;48.778;9.126;2023-04-24T08:48:46;2.05;;;1.10;;
21943;SDS011;11136;48.778;9.126;2023-04-24T08:51:13;1.15;;;0.90;;
21943;SDS011;11136;48.778;9.126;2023-04-24T08:53:39;1.98;;;1.20;;
21943;SDS011;11136;48.778;9.126;2023-04-24T08:56:05;1.75;;;1.27;;
21943;SDS011;11136;48.778;9.126;2023-04-24T08:58:31;3.30;;;1.35;;
21943;SDS011;11136;48.778;9.126;2023-04-24T09:00:57;3.70;;;1.25;;
21943;SDS011;11136;48.778;9.126;2023-04-24T09:03:23;1.45;;;1.08;;
21943;SDS011;11136;48.778;9.126;2023-04-24T09:05:52;1.20;;;1.08;;
21943;SDS011;11136;48.778;9.126;2023-04-24T09:08:19;3.03;;;1.02;;
21943;SDS011;11136;48.778;9.126;2023-04-24T09:10:47;1.30;;;1.10;;
21943;SDS011;11136;48.778;9.126;2023-04-24T09:13:13;2.60;;;1.50;;
21943;SDS011;11136;48.778;9.126;2023-04-24T09:15:39;1.88;;;1.45;;
21943;SDS011;11136;48.778;9.126;2023-04-24T09:18:05;1.38;;;0.95;;
21943;SDS011;11136;48.778;9.126;2023-04-24T09:20:31;1.73;;;1.33;;
21943;SDS011;11136;48.778;9.126;2023-04-24T09:22:57;1.30;;;1.20;;
21943;SDS011;11136;48.778;9.126;2023-04-24T09:25:25;2.78;;;1.23;;
21943;SDS011;11136;48.778;9.126;2023-04-24T09:28:01;1.38;;;1.05;;
21943;SDS011;11136;48.778;9.126;2023-04-24T09:30:54;1.17;;;1.08;;
21943;SDS011;11136;48.778;9.126;2023-04-24T09:33:34;3.20;;;1.08;;
21943;SDS011;11136;48.778;9.126;2023-04-24T09:36:00;1.38;;;1.20;;
21943;SDS011;11136;48.778;9.126;2023-04-24T09:38:32;2.50;;;1.27;;
21943;SDS011;11136;48.778;9.126;2023-04-24T09:41:00;1.67;;;1.08;;
21943;SDS011;11136;48.778;9.126;2023-04-24T09:43:33;2.90;;;1.08;;
21943;SDS011;11136;48.778;9.126;2023-04-24T09:46:00;1.45;;;1.20;;
21943;SDS011;11136;48.778;9.126;2023-04-24T09:48:31;2.65;;;1.02;;
21943;SDS011;11136;48.778;9.126;2023-04-24T09:51:01;1.98;;;1.13;;
21943;SDS011;11136;48.778;9.126;2023-04-24T09:53:29;1.55;;;0.90;;
21943;SDS011;11136;48.778;9.126;2023-04-24T09:55:55;2.38;;;1.02;;
21943;SDS011;11136;48.778;9.126;2023-04-24T09:58:25;0.90;;;0.80;;
21943;SDS011;11136;48.778;9.126;2023-04-24T10:00:54;3.38;;;1.10;;
21943;SDS011;11136;48.778;9.126;2023-04-24T10:03:23;3.30;;;1.20;;
21943;SDS011;11136;48.778;9.126;2023-04-24T10:05:49;1.73;;;1.02;;
21943;SDS011;11136;48.778;9.126;2023-04-24T10:08:17;1.85;;;0.90;;
21943;SDS011;11136;48.778;9.126;2023-04-24T10:10:43;1.55;;;0.93;;
21943;SDS011;11136;48.778;9.126;2023-04-24T10:13:11;1.48;;;1.13;;
21943;SDS011;11136;48.778;9.126;2023-04-24T10:15:39;2.55;;;0.95;;
21943;SDS011;11136;48.778;9.126;2023-04-24T10:18:07;1.80;;;0.80;;
21943;SDS011;11136;48.778;9.126;2023-04-24T10:20:34;1.20;;;0.80;;
21943;SDS011;11136;48.778;9.126;2023-04-24T10:23:01;2.05;;;0.95;;
21943;SDS011;11136;48.778;9.126;2023-04-24T10:25:29;1.77;;;1.20;;
21943;SDS011;11136;48.778;9.126;2023-04-24T10:27:56;1.52;;;0.93;;
21943;SDS011;11136;48.778;9.126;2023-04-24T10:30:24;0.77;;;0.70;;
21943;SDS011;11136;48.778;9.126;2023-04-24T10:32:54;1.92;;;0.80;;
21943;SDS011;11136;48.778;9.126;2023-04-24T10:35:21;2.65;;;1.05;;
21943;SDS011;11136;48.778;9.126;2023-04-24T10:37:56;1.02;;;0.88;;
21943;SDS011;11136;48.778;9.126;2023-04-24T10:40:29;3.72;;;1.10;;
21943;SDS011;11136;48.778;9.126;2023-04-24T10:42:59;1.20;;;0.80;;
21943;SDS011;11136;48.778;9.126;2023-04-24T10:45:27;1.25;;;1.15;;
21943;SDS011;11136;48.778;9.126;2023-04-24T10:47:57;1.48;;;0.98;;
21943;SDS011;11136;48.778;9.126;2023-04-24T10:50:27;3.17;;;1.23;;
21943;SDS011;11136;48.778;9.126;2023-04-24T10:53:12;1.38;;;0.88;;
21943;SDS011;11136;48.778;9.126;2023-04-24T10:55:52;2.67;;;1.08;;
21943;SDS011;11136;48.778;9.126;2023-04-24T10:58:23;1.02;;;0.98;;
21943;SDS011;11136;48.778;9.126;2023-04-24T11:01:00;2.97;;;0.98;;
21943;SDS011;11136;48.778;9.126;2023-04-24T11:03:29;1.85;;;1.02;;
21943;SDS011;11136;48.778;9.126;2023-04-24T11:06:03;1.08;;;0.90;;
21943;SDS011;11136;48.778;9.126;2023-04-24T11:08:52;2.35;;;1.30;;
21943;SDS011;11136;48.778;9.126;2023-04-24T11:11:17;1.00;;;0.90;;
21943;SDS011;11136;48.778;9.126;2023-04-24T11:19:17;2.40;;;1.10;;
21943;SDS011;11136;48.778;9.126;2023-04-24T11:24:29;0.95;;;0.80;;
21943;SDS011;11136;48.778;9.126;2023-04-24T11:32:41;1.13;;;1.02;;
21943;SDS011;11136;48.778;9.126;2023-04-24T11:35:17;1.50;;;1.08;;
21943;SDS011;11136;48.778;9.126;2023-04-24T11:37:53;1.13;;;0.90;;
21943;SDS011;11136;48.778;9.126;2023-04-24T11:40:20;1.45;;;1.08;;
21943;SDS011;11136;48.778;9.126;2023-04-24T11:42:51;2.58;;;1.02;;
21943;SDS011;11136;48.778;9.126;2023-04-24T11:45:18;1.83;;;1.15;;
21943;SDS011;11136;48.778;9.126;2023-04-24T11:47:46;0.75;;;0.68;;
21943;SDS011;11136;48.778;9.126;2023-04-24T11:50:15;1.73;;;0.88;;
21943;SDS011;11136;48.778;9.126;2023-04-24T11:52:47;1.30;;;0.98;;
21943;SDS011;11136;48.778;9.126;2023-04-24T11:57:43;1.92;;;0.90;;
21943;SDS011;11136;48.778;9.126;2023-04-24T12:00:15;1.58;;;1.10;;
21943;SDS011;11136;48.778;9.126;2023-04-24T12:02:42;5.63;;;0.98;;
21943;SDS011;11136;48.778;9.126;2023-04-24T12:05:08;1.83;;;1.00;;
21943;SDS011;11136;48.778;9.126;2023-04-24T12:07:40;3.33;;;1.05;;
21943;SDS011;11136;48.778;9.126;2023-04-24T12:10:09;1.98;;;1.00;;
21943;SDS011;11136;48.778;9.126;2023-04-24T12:12:34;2.15;;;0.82;;
21943;SDS011;11136;48.778;9.126;2023-04-24T12:15:00;2.75;;;0.90;;
21943;SDS011;11136;48.778;9.126;2023-04-24T12:17:28;1.23;;;0.82;;
21943;SDS011;11136;48.778;9.126;2023-04-24T12:20:03;1.67;;;1.02;;
21943;SDS011;11136;48.778;9.126;2023-04-24T12:22:46;0.90;;;0.90;;
21943;SDS011;11136;48.778;9.126;2023-04-24T12:25:14;1.17;;;0.90;;
21943;SDS011;11136;48.778;9.126;2023-04-24T12:27:40;4.90;;;1.38;;
21943;SDS011;11136;48.778;9.126;2023-04-24T12:30:09;3.20;;;1.02;;
21943;SDS011;11136;48.778;9.126;2023-04-24T12:32:40;1.85;;;1.08;;
21943;SDS011;11136;48.778;9.126;2023-04-24T12:35:23;3.05;;;1.40;;
21943;SDS011;11136;48.778;9.126;2023-04-24T12:37:50;1.23;;;0.80;;
21943;SDS011;11136;48.778;9.126;2023-04-24T12:40:17;4.82;;;1.30;;
21943;SDS011;11136;48.778;9.126;2023-04-24T12:42:44;3.63;;;1.40;;
21943;SDS011;11136;48.778;9.126;2023-04-24T12:45:16;2.27;;;1.17;;
21943;SDS011;11136;48.778;9.126;2023-04-24T12:47:43;1.30;;;1.00;;
21943;SDS011;11136;48.778;9.126;2023-04-24T12:50:10;1.58;;;1.08;;
21943;SDS011;11136;48.778;9.126;2023-04-24T12:52:37;1.88;;;0.80;;
21943;SDS011;11136;48.778;9.126;2023-04-24T12:55:04;1.52;;;1.25;;
21943;SDS011;11136;48.778;9.126;2023-04-24T12:57:33;2.72;;;0.80;;
21943;SDS011;11136;48.778;9.126;2023-04-24T12:59:59;1.17;;;1.00;;
21943;SDS011;11136;48.778;9.126;2023-04-24T13:02:26;1.10;;;0.90;;
21943;SDS011;11136;48.778;9.126;2023-04-24T13:04:54;1.52;;;0.77;;
21943;SDS011;11136;48.778;9.126;2023-04-24T13:07:20;1.13;;;0.90;;
21943;SDS011;11136;48.778;9.126;2023-04-24T13:09:47;1.02;;;0.90;;
21943;SDS011;11136;48.778;9.126;2023-04-24T13:12:13;1.27;;;1.00;;
21943;SDS011;11136;48.778;9.126;2023-04-24T13:14:40;2.00;;;1.10;;
21943;SDS011;11136;48.778;9.126;2023-04-24T13:17:06;1.67;;;1.10;;
21943;SDS011;11136;48.778;9.126;2023-04-24T13:19:39;2.25;;;1.00;;
21943;SDS011;11136;48.778;9.126;2023-04-24T13:22:06;1.48;;;1.08;;
21943;SDS011;11136;48.778;9.126;2023-04-24T13:24:33;1.08;;;0.93;;
21943;SDS011;11136;48.778;9.126;2023-04-24T13:26:59;1.33;;;1.00;;
21943;SDS011;11136;48.778;9.126;2023-04-24T13:29:26;1.20;;;1.05;;
21943;SDS011;11136;48.778;9.126;2023-04-24T13:31:52;1.33;;;0.85;;
21943;SDS011;11136;48.778;9.126;2023-04-24T13:34:20;1.73;;;1.20;;
21943;SDS011;11136;48.778;9.126;2023-04-24T13:36:46;2.03;;;1.00;;
21943;SDS011;11136;48.778;9.126;2023-04-24T13:39:12;1.58;;;1.23;;
21943;SDS011;11136;48.778;9.126;2023-04-24T13:41:38;2.08;;;1.40;;
21943;SDS011;11136;48.778;9.126;2023-04-24T13:44:04;1.52;;;1.05;;
21943;SDS011;11136;48.778;9.126;2023-04-24T13:46:30;4.75;;;1.10;;
21943;SDS011;11136;48.778;9.126;2023-04-24T13:48:56;1.55;;;1.00;;
21943;SDS011;11136;48.778;9.126;2023-04-24T13:51:23;1.30;;;0.98;;
21943;SDS011;11136;48.778;9.126;2023-04-24T13:53:52;1.20;;;1.10;;
21943;SDS011;11136;48.778;9.126;2023-04-24T13:56:18;1.52;;;1.20;;
21943;SDS011;11136;48.778;9.126;2023-04-24T13:58:44;1.50;;;1.25;;
21943;SDS011;11136;48.778;9.126;2023-04-24T14:01:09;1.50;;;1.25;;
21943;SDS011;11136;48.778;9.126;2023-04-24T14:03:36;2.08;;;1.23;;
21943;SDS011;11136;48.778;9.126;2023-04-24T14:06:02;1.67;;;1.40;;
21943;SDS011;11136;48.778;9.126;2023-04-24T14:08:29;1.05;;;0.90;;
21943;SDS011;11136;48.778;9.126;2023-04-24T14:10:55;1.58;;;1.10;;
21943;SDS011;11136;48.778;9.126;2023-04-24T14:13:20;1.40;;;1.23;;
21943;SDS011;11136;48.778;9.126;2023-04-24T14:15:46;1.52;;;1.27;;
21943;SDS011;11136;48.778;9.126;2023-04-24T14:18:12;1.38;;;1.15;;
21943;SDS011;11136;48.778;9.126;2023-04-24T14:20:37;0.95;;;0.88;;
21943;SDS011;11136;48.778;9.126;2023-04-24T14:23:03;1.52;;;1.38;;
21943;SDS011;11136;48.778;9.126;2023-04-24T14:25:29;4.40;;;1.27;;
21943;SDS011;11136;48.778;9.126;2023-04-24T14:27:55;1.42;;;1.17;;
21943;SDS011;11136;48.778;9.126;2023-04-24T14:30:21;1.38;;;1.02;;
21943;SDS011;11136;48.778;9.126;2023-04-24T14:32:46;1.48;;;1.00;;
21943;SDS011;11136;48.778;9.126;2023-04-24T14:35:12;1.15;;;0.93;;
21943;SDS011;11136;48.778;9.126;2023-04-24T14:37:39;1.92;;;1.20;;
21943;SDS011;11136;48.778;9.126;2023-04-24T14:40:06;0.75;;;0.75;;
21943;SDS011;11136;48.778;9.126;2023-04-24T14:42:33;3.33;;;1.00;;
21943;SDS011;11136;48.778;9.126;2023-04-24T14:44:59;2.58;;;1.00;;
21943;SDS011;11136;48.778;9.126;2023-04-24T14:47:24;2.25;;;1.23;;
21943;SDS011;11136;48.778;9.126;2023-04-24T14:49:50;2.65;;;0.90;;
21943;SDS011;11136;48.778;9.126;2023-04-24T14:52:16;2.75;;;1.05;;
21943;SDS011;11136;48.778;9.126;2023-04-24T14:54:42;3.90;;;1.23;;
21943;SDS011;11136;48.778;9.126;2023-04-24T14:57:09;1.30;;;1.20;;
21943;SDS011;11136;48.778;9.126;2023-04-24T14:59:36;1.45;;;1.30;;
21943;SDS011;11136;48.778;9.126;2023-04-24T15:02:01;3.70;;;1.70;;
21943;SDS011;11136;48.778;9.126;2023-04-24T15:04:27;2.53;;;1.80;;